sensor_id;sensor_type;location;lat;lon;timestamp;temperature;humidity
35668;DHT22;22158;59.280;17.806;2022-11-06T00:00:22;7.70;99.90
35668;DHT22;22158;59.280;17.806;2022-11-06T00:02:47;7.70;99.90
35668;DHT22;22158;59.280;17.806;2022-11-06T00:05:14;7.80;99.90
35668;DHT22;22158;59.280;17.806;2022-11-06T00:07:58;7.70;99.90
35668;DHT22;22158;59.280;17.806;2022-11-06T00:10:24;7.70;99.90
35668;DHT22;22158;59.280;17.806;2022-11-06T00:12:50;7.70;99.90
35668;DHT22;22158;59.280;17.806;2022-11-06T00:15:16;7.70;99.90
35668;DHT22;22158;59.280;17.806;2022-11-06T00:17:42;7.70;99.90
35668;DHT22;22158;59.280;17.806;2022-11-06T00:20:09;7.70;99.90
35668;DHT22;22158;59.280;17.806;2022-11-06T00:22:35;7.60;99.90
35668;DHT22;22158;59.280;17.806;2022-11-06T00:25:02;7.60;99.90
35668;DHT22;22158;59.280;17.806;2022-11-06T00:27:28;7.60;99.90
35668;DHT22;22158;59.280;17.806;2022-11-06T00:29:54;7.60;99.90
35668;DHT22;22158;59.280;17.806;2022-11-06T00:32:20;7.60;99.90
35668;DHT22;22158;59.280;17.806;2022-11-06T00:34:46;7.60;99.90
35668;DHT22;22158;59.280;17.806;2022-11-06T00:37:12;7.60;99.90
35668;DHT22;22158;59.280;17.806;2022-11-06T00:39:38;7.60;99.90
35668;DHT22;22158;59.280;17.806;2022-11-06T00:42:03;7.60;99.90
35668;DHT22;22158;59.280;17.806;2022-11-06T00:44:29;7.50;99.90
35668;DHT22;22158;59.280;17.806;2022-11-06T00:46:55;7.50;99.90
35668;DHT22;22158;59.280;17.806;2022-11-06T00:49:20;7.40;99.90
35668;DHT22;22158;59.280;17.806;2022-11-06T00:51:46;7.30;99.90
35668;DHT22;22158;59.280;17.806;2022-11-06T00:54:12;7.30;99.90
35668;DHT22;22158;59.280;17.806;2022-11-06T00:56:38;7.30;99.90
35668;DHT22;22158;59.280;17.806;2022-11-06T00:59:07;7.20;99.90
35668;DHT22;22158;59.280;17.806;2022-11-06T01:01:36;7.20;99.90
35668;DHT22;22158;59.280;17.806;2022-11-06T01:04:13;7.20;99.90
35668;DHT22;22158;59.280;17.806;2022-11-06T01:06:42;7.10;99.90
35668;DHT22;22158;59.280;17.806;2022-11-06T01:09:10;7.10;99.90
35668;DHT22;22158;59.280;17.806;2022-11-06T01:11:39;7.00;99.90
35668;DHT22;22158;59.280;17.806;2022-11-06T01:14:06;7.00;99.90
35668;DHT22;22158;59.280;17.806;2022-11-06T01:16:34;7.00;99.90
35668;DHT22;22158;59.280;17.806;2022-11-06T01:19:00;7.00;99.90
35668;DHT22;22158;59.280;17.806;2022-11-06T01:21:32;6.90;99.90
35668;DHT22;22158;59.280;17.806;2022-11-06T01:24:00;7.00;99.90
35668;DHT22;22158;59.280;17.806;2022-11-06T01:26:27;7.00;99.90
35668;DHT22;22158;59.280;17.806;2022-11-06T01:28:55;7.10;99.90
35668;DHT22;22158;59.280;17.806;2022-11-06T01:31:23;7.10;99.90
35668;DHT22;22158;59.280;17.806;2022-11-06T01:33:49;7.00;99.90
35668;DHT22;22158;59.280;17.806;2022-11-06T01:36:17;7.00;99.90
35668;DHT22;22158;59.280;17.806;2022-11-06T01:38:46;7.00;99.90
35668;DHT22;22158;59.280;17.806;2022-11-06T01:41:35;7.00;99.90
35668;DHT22;22158;59.280;17.806;2022-11-06T01:47:03;6.90;99.90
35668;DHT22;22158;59.280;17.806;2022-11-06T01:49:35;6.90;99.90
35668;DHT22;22158;59.280;17.806;2022-11-06T01:52:03;6.90;99.90
35668;DHT22;22158;59.280;17.806;2022-11-06T01:54:30;6.80;99.90
35668;DHT22;22158;59.280;17.806;2022-11-06T01:56:58;6.80;99.90
35668;DHT22;22158;59.280;17.806;2022-11-06T01:59:27;6.80;99.90
35668;DHT22;22158;59.280;17.806;2022-11-06T02:01:54;6.80;99.90
35668;DHT22;22158;59.280;17.806;2022-11-06T02:04:24;6.80;99.90
35668;DHT22;22158;59.280;17.806;2022-11-06T02:06:50;6.70;99.90
35668;DHT22;22158;59.280;17.806;2022-11-06T02:09:16;6.70;99.90
35668;DHT22;22158;59.280;17.806;2022-11-06T02:28:25;6.60;99.90
35668;DHT22;22158;59.280;17.806;2022-11-06T02:30:55;6.50;99.90
35668;DHT22;22158;59.280;17.806;2022-11-06T02:33:37;6.60;99.90
35668;DHT22;22158;59.280;17.806;2022-11-06T02:36:08;6.60;99.90
35668;DHT22;22158;59.280;17.806;2022-11-06T02:38:39;6.60;99.90
35668;DHT22;22158;59.280;17.806;2022-11-06T02:41:09;6.60;99.90
35668;DHT22;22158;59.280;17.806;2022-11-06T02:43:41;6.60;99.90
35668;DHT22;22158;59.280;17.806;2022-11-06T02:46:12;6.60;99.90
35668;DHT22;22158;59.280;17.806;2022-11-06T02:48:50;6.60;99.90
35668;DHT22;22158;59.280;17.806;2022-11-06T02:51:19;6.50;99.90
35668;DHT22;22158;59.280;17.806;2022-11-06T02:53:47;6.50;99.90
35668;DHT22;22158;59.280;17.806;2022-11-06T02:56:34;6.40;99.90
35668;DHT22;22158;59.280;17.806;2022-11-06T02:59:09;6.50;99.90
35668;DHT22;22158;59.280;17.806;2022-11-06T03:01:41;6.60;99.90
35668;DHT22;22158;59.280;17.806;2022-11-06T03:04:53;6.60;99.90
35668;DHT22;22158;59.280;17.806;2022-11-06T03:09:46;6.60;99.90
35668;DHT22;22158;59.280;17.806;2022-11-06T03:12:26;6.60;99.90
35668;DHT22;22158;59.280;17.806;2022-11-06T03:17:58;6.40;99.90
35668;DHT22;22158;59.280;17.806;2022-11-06T03:20:28;6.40;99.90
35668;DHT22;22158;59.280;17.806;2022-11-06T03:25:34;6.50;99.90
35668;DHT22;22158;59.280;17.806;2022-11-06T03:28:10;6.50;99.90
35668;DHT22;22158;59.280;17.806;2022-11-06T03:30:47;6.60;99.90
35668;DHT22;22158;59.280;17.806;2022-11-06T03:33:19;6.60;99.90
35668;DHT22;22158;59.280;17.806;2022-11-06T03:35:49;6.60;99.90
35668;DHT22;22158;59.280;17.806;2022-11-06T03:38:24;6.60;99.90
35668;DHT22;22158;59.280;17.806;2022-11-06T03:41:07;6.70;99.90
35668;DHT22;22158;59.280;17.806;2022-11-06T03:43:35;6.70;99.90
35668;DHT22;22158;59.280;17.806;2022-11-06T03:46:04;6.70;99.90
35668;DHT22;22158;59.280;17.806;2022-11-06T03:48:40;6.70;99.90
35668;DHT22;22158;59.280;17.806;2022-11-06T03:51:32;6.60;99.90
35668;DHT22;22158;59.280;17.806;2022-11-06T03:54:22;6.70;99.90
35668;DHT22;22158;59.280;17.806;2022-11-06T03:57:14;6.70;99.90
35668;DHT22;22158;59.280;17.806;2022-11-06T03:59:44;6.70;99.90
35668;DHT22;22158;59.280;17.806;2022-11-06T04:02:12;6.80;99.90
35668;DHT22;22158;59.280;17.806;2022-11-06T04:04:52;6.70;99.90
35668;DHT22;22158;59.280;17.806;2022-11-06T04:07:22;6.80;99.90
35668;DHT22;22158;59.280;17.806;2022-11-06T04:09:52;6.80;99.90
35668;DHT22;22158;59.280;17.806;2022-11-06T04:12:38;6.90;99.90
35668;DHT22;22158;59.280;17.806;2022-11-06T04:15:25;7.00;99.90
35668;DHT22;22158;59.280;17.806;2022-11-06T04:17:51;7.00;99.90
35668;DHT22;22158;59.280;17.806;2022-11-06T04:20:21;6.90;99.90
35668;DHT22;22158;59.280;17.806;2022-11-06T04:23:57;7.00;99.90
35668;DHT22;22158;59.280;17.806;2022-11-06T04:26:46;7.10;99.90
35668;DHT22;22158;59.280;17.806;2022-11-06T04:37:45;7.10;99.90
35668;DHT22;22158;59.280;17.806;2022-11-06T04:40:47;7.10;99.90
35668;DHT22;22158;59.280;17.806;2022-11-06T04:43:28;7.10;99.90
35668;DHT22;22158;59.280;17.806;2022-11-06T04:45:56;7.10;99.90
35668;DHT22;22158;59.280;17.806;2022-11-06T04:48:24;7.00;99.90
35668;DHT22;22158;59.280;17.806;2022-11-06T04:50:53;7.00;99.90
35668;DHT22;22158;59.280;17.806;2022-11-06T04:53:21;6.90;99.90
35668;DHT22;22158;59.280;17.806;2022-11-06T04:55:53;6.90;99.90
35668;DHT22;22158;59.280;17.806;2022-11-06T04:58:20;6.90;99.90
35668;DHT22;22158;59.280;17.806;2022-11-06T05:00:48;6.90;99.90
35668;DHT22;22158;59.280;17.806;2022-11-06T05:03:15;6.90;99.90
35668;DHT22;22158;59.280;17.806;2022-11-06T05:05:41;6.90;99.90
35668;DHT22;22158;59.280;17.806;2022-11-06T05:08:14;6.90;99.90
35668;DHT22;22158;59.280;17.806;2022-11-06T05:10:41;6.90;99.90
35668;DHT22;22158;59.280;17.806;2022-11-06T05:13:08;6.90;99.90
35668;DHT22;22158;59.280;17.806;2022-11-06T05:15:34;6.90;99.90
35668;DHT22;22158;59.280;17.806;2022-11-06T05:17:59;6.90;99.90
35668;DHT22;22158;59.280;17.806;2022-11-06T05:20:25;6.90;99.90
35668;DHT22;22158;59.280;17.806;2022-11-06T05:22:51;6.90;99.90
35668;DHT22;22158;59.280;17.806;2022-11-06T05:25:34;6.90;99.90
35668;DHT22;22158;59.280;17.806;2022-11-06T05:28:01;6.90;99.90
35668;DHT22;22158;59.280;17.806;2022-11-06T05:30:27;6.90;99.90
35668;DHT22;22158;59.280;17.806;2022-11-06T05:32:53;7.00;99.90
35668;DHT22;22158;59.280;17.806;2022-11-06T05:35:19;6.90;99.90
35668;DHT22;22158;59.280;17.806;2022-11-06T05:37:45;7.00;99.90
35668;DHT22;22158;59.280;17.806;2022-11-06T05:40:11;7.00;99.90
35668;DHT22;22158;59.280;17.806;2022-11-06T05:42:38;7.00;99.90
35668;DHT22;22158;59.280;17.806;2022-11-06T05:45:05;7.00;99.90
35668;DHT22;22158;59.280;17.806;2022-11-06T05:47:31;7.00;99.90
35668;DHT22;22158;59.280;17.806;2022-11-06T05:49:56;7.00;99.90
35668;DHT22;22158;59.280;17.806;2022-11-06T05:52:22;6.90;99.90
35668;DHT22;22158;59.280;17.806;2022-11-06T05:54:48;6.90;99.90
35668;DHT22;22158;59.280;17.806;2022-11-06T05:57:14;6.90;99.90
35668;DHT22;22158;59.280;17.806;2022-11-06T05:59:39;6.90;99.90
35668;DHT22;22158;59.280;17.806;2022-11-06T06:02:05;6.90;99.90
35668;DHT22;22158;59.280;17.806;2022-11-06T06:04:31;6.90;99.90
35668;DHT22;22158;59.280;17.806;2022-11-06T06:06:56;6.90;99.90
35668;DHT22;22158;59.280;17.806;2022-11-06T06:09:22;6.90;99.90
35668;DHT22;22158;59.280;17.806;2022-11-06T06:11:52;6.90;99.90
35668;DHT22;22158;59.280;17.806;2022-11-06T06:14:19;6.90;99.90
35668;DHT22;22158;59.280;17.806;2022-11-06T06:16:45;6.90;99.90
35668;DHT22;22158;59.280;17.806;2022-11-06T06:19:11;6.90;99.90
35668;DHT22;22158;59.280;17.806;2022-11-06T06:21:36;6.90;99.90
35668;DHT22;22158;59.280;17.806;2022-11-06T06:24:03;6.80;99.90
35668;DHT22;22158;59.280;17.806;2022-11-06T06:26:29;6.90;99.90
35668;DHT22;22158;59.280;17.806;2022-11-06T06:28:55;6.90;99.90
35668;DHT22;22158;59.280;17.806;2022-11-06T06:31:20;6.80;99.90
35668;DHT22;22158;59.280;17.806;2022-11-06T06:33:46;6.80;99.90
35668;DHT22;22158;59.280;17.806;2022-11-06T06:36:12;6.90;99.90
35668;DHT22;22158;59.280;17.806;2022-11-06T06:38:38;6.90;99.90
35668;DHT22;22158;59.280;17.806;2022-11-06T06:41:05;6.80;99.90
35668;DHT22;22158;59.280;17.806;2022-11-06T06:43:31;6.80;99.90
35668;DHT22;22158;59.280;17.806;2022-11-06T06:46:01;6.80;99.90
35668;DHT22;22158;59.280;17.806;2022-11-06T06:48:27;6.70;99.90
35668;DHT22;22158;59.280;17.806;2022-11-06T06:50:57;6.70;99.90
35668;DHT22;22158;59.280;17.806;2022-11-06T06:53:23;6.70;99.90
35668;DHT22;22158;59.280;17.806;2022-11-06T06:55:49;6.80;99.90
35668;DHT22;22158;59.280;17.806;2022-11-06T06:58:15;6.80;99.90
35668;DHT22;22158;59.280;17.806;2022-11-06T07:00:40;6.70;99.90
35668;DHT22;22158;59.280;17.806;2022-11-06T07:03:06;6.70;99.90
35668;DHT22;22158;59.280;17.806;2022-11-06T07:05:32;6.80;99.90
35668;DHT22;22158;59.280;17.806;2022-11-06T07:07:58;6.70;99.90
35668;DHT22;22158;59.280;17.806;2022-11-06T07:10:23;6.80;99.90
35668;DHT22;22158;59.280;17.806;2022-11-06T07:12:49;6.80;99.90
35668;DHT22;22158;59.280;17.806;2022-11-06T07:15:15;6.80;99.90
35668;DHT22;22158;59.280;17.806;2022-11-06T07:17:41;6.80;99.90
35668;DHT22;22158;59.280;17.806;2022-11-06T07:20:07;6.90;99.90
35668;DHT22;22158;59.280;17.806;2022-11-06T07:22:33;6.80;99.90
35668;DHT22;22158;59.280;17.806;2022-11-06T07:24:59;6.80;99.90
35668;DHT22;22158;59.280;17.806;2022-11-06T07:27:25;6.90;99.90
35668;DHT22;22158;59.280;17.806;2022-11-06T07:29:50;7.00;99.90
35668;DHT22;22158;59.280;17.806;2022-11-06T07:32:16;6.90;99.90
35668;DHT22;22158;59.280;17.806;2022-11-06T07:34:42;7.00;99.90
35668;DHT22;22158;59.280;17.806;2022-11-06T07:37:08;7.00;99.90
35668;DHT22;22158;59.280;17.806;2022-11-06T07:39:33;6.90;99.90
35668;DHT22;22158;59.280;17.806;2022-11-06T07:41:59;7.00;99.90
35668;DHT22;22158;59.280;17.806;2022-11-06T07:44:25;7.00;99.90
35668;DHT22;22158;59.280;17.806;2022-11-06T07:46:50;7.00;99.90
35668;DHT22;22158;59.280;17.806;2022-11-06T07:49:16;7.10;99.90
35668;DHT22;22158;59.280;17.806;2022-11-06T07:51:42;7.20;99.90
35668;DHT22;22158;59.280;17.806;2022-11-06T07:54:10;7.20;99.90
35668;DHT22;22158;59.280;17.806;2022-11-06T07:56:36;7.20;99.90
35668;DHT22;22158;59.280;17.806;2022-11-06T07:59:02;7.20;99.90
35668;DHT22;22158;59.280;17.806;2022-11-06T08:01:28;7.30;99.90
35668;DHT22;22158;59.280;17.806;2022-11-06T08:03:54;7.30;99.90
35668;DHT22;22158;59.280;17.806;2022-11-06T08:06:19;7.30;99.90
35668;DHT22;22158;59.280;17.806;2022-11-06T08:08:45;7.30;99.90
35668;DHT22;22158;59.280;17.806;2022-11-06T08:11:11;7.40;99.90
35668;DHT22;22158;59.280;17.806;2022-11-06T08:13:38;7.30;99.90
35668;DHT22;22158;59.280;17.806;2022-11-06T08:16:13;7.40;99.90
35668;DHT22;22158;59.280;17.806;2022-11-06T08:18:40;7.40;99.90
35668;DHT22;22158;59.280;17.806;2022-11-06T08:21:06;7.50;99.90
35668;DHT22;22158;59.280;17.806;2022-11-06T08:23:34;7.60;99.90
35668;DHT22;22158;59.280;17.806;2022-11-06T08:26:01;7.60;99.90
35668;DHT22;22158;59.280;17.806;2022-11-06T08:28:27;7.60;99.90
35668;DHT22;22158;59.280;17.806;2022-11-06T08:30:54;7.70;99.90
35668;DHT22;22158;59.280;17.806;2022-11-06T08:33:21;7.70;99.90
35668;DHT22;22158;59.280;17.806;2022-11-06T08:35:47;7.70;99.90
35668;DHT22;22158;59.280;17.806;2022-11-06T08:38:13;7.80;99.90
35668;DHT22;22158;59.280;17.806;2022-11-06T08:40:39;7.80;99.90
35668;DHT22;22158;59.280;17.806;2022-11-06T08:43:07;7.80;99.90
35668;DHT22;22158;59.280;17.806;2022-11-06T08:45:41;7.80;99.90
35668;DHT22;22158;59.280;17.806;2022-11-06T08:48:08;7.70;99.90
35668;DHT22;22158;59.280;17.806;2022-11-06T08:50:35;7.90;99.90
35668;DHT22;22158;59.280;17.806;2022-11-06T08:53:02;7.90;99.90
35668;DHT22;22158;59.280;17.806;2022-11-06T08:55:36;8.00;99.90
35668;DHT22;22158;59.280;17.806;2022-11-06T08:58:03;8.00;99.90
35668;DHT22;22158;59.280;17.806;2022-11-06T09:00:29;8.00;99.90
35668;DHT22;22158;59.280;17.806;2022-11-06T09:03:00;8.00;99.90
35668;DHT22;22158;59.280;17.806;2022-11-06T09:05:26;8.00;99.90
35668;DHT22;22158;59.280;17.806;2022-11-06T09:07:52;8.10;99.90
35668;DHT22;22158;59.280;17.806;2022-11-06T09:10:18;8.20;99.90
35668;DHT22;22158;59.280;17.806;2022-11-06T09:12:44;8.30;99.90
35668;DHT22;22158;59.280;17.806;2022-11-06T09:15:10;8.40;99.90
35668;DHT22;22158;59.280;17.806;2022-11-06T09:17:46;8.40;99.90
35668;DHT22;22158;59.280;17.806;2022-11-06T09:20:13;8.40;99.90
35668;DHT22;22158;59.280;17.806;2022-11-06T09:22:39;8.50;99.90
35668;DHT22;22158;59.280;17.806;2022-11-06T09:25:06;8.50;99.90
35668;DHT22;22158;59.280;17.806;2022-11-06T09:27:32;8.50;99.90
35668;DHT22;22158;59.280;17.806;2022-11-06T09:29:58;8.50;99.90
35668;DHT22;22158;59.280;17.806;2022-11-06T09:32:23;8.50;99.90
35668;DHT22;22158;59.280;17.806;2022-11-06T09:34:49;8.50;99.90
35668;DHT22;22158;59.280;17.806;2022-11-06T09:37:15;8.60;99.90
35668;DHT22;22158;59.280;17.806;2022-11-06T09:39:41;8.60;99.90
35668;DHT22;22158;59.280;17.806;2022-11-06T09:45:16;8.70;99.90
35668;DHT22;22158;59.280;17.806;2022-11-06T09:47:50;8.80;99.90
35668;DHT22;22158;59.280;17.806;2022-11-06T09:50:21;8.90;99.90
35668;DHT22;22158;59.280;17.806;2022-11-06T09:52:49;8.90;99.90
35668;DHT22;22158;59.280;17.806;2022-11-06T09:55:22;8.90;99.90
35668;DHT22;22158;59.280;17.806;2022-11-06T09:58:08;8.90;99.90
35668;DHT22;22158;59.280;17.806;2022-11-06T10:00:38;9.00;99.90
35668;DHT22;22158;59.280;17.806;2022-11-06T10:03:25;9.10;99.90
35668;DHT22;22158;59.280;17.806;2022-11-06T10:05:54;9.10;99.90
35668;DHT22;22158;59.280;17.806;2022-11-06T10:08:22;9.10;99.90
35668;DHT22;22158;59.280;17.806;2022-11-06T10:11:02;9.20;99.90
35668;DHT22;22158;59.280;17.806;2022-11-06T10:19:10;9.30;99.90
35668;DHT22;22158;59.280;17.806;2022-11-06T10:21:53;9.30;99.90
35668;DHT22;22158;59.280;17.806;2022-11-06T10:27:17;9.40;99.90
35668;DHT22;22158;59.280;17.806;2022-11-06T10:29:50;9.50;99.90
35668;DHT22;22158;59.280;17.806;2022-11-06T10:35:18;9.70;99.90
35668;DHT22;22158;59.280;17.806;2022-11-06T10:40:17;9.90;99.90
35668;DHT22;22158;59.280;17.806;2022-11-06T10:42:45;10.00;99.90
35668;DHT22;22158;59.280;17.806;2022-11-06T10:45:15;10.10;99.90
35668;DHT22;22158;59.280;17.806;2022-11-06T10:47:45;10.10;99.90
35668;DHT22;22158;59.280;17.806;2022-11-06T10:50:14;10.30;99.90
35668;DHT22;22158;59.280;17.806;2022-11-06T10:58:12;10.10;99.90
35668;DHT22;22158;59.280;17.806;2022-11-06T11:00:38;10.10;99.90
35668;DHT22;22158;59.280;17.806;2022-11-06T11:03:10;10.10;99.90
35668;DHT22;22158;59.280;17.806;2022-11-06T11:05:41;10.10;99.90
35668;DHT22;22158;59.280;17.806;2022-11-06T11:11:24;10.10;99.90
35668;DHT22;22158;59.280;17.806;2022-11-06T11:14:13;10.10;99.90
35668;DHT22;22158;59.280;17.806;2022-11-06T11:16:42;10.20;99.90
35668;DHT22;22158;59.280;17.806;2022-11-06T11:19:37;10.30;99.90
35668;DHT22;22158;59.280;17.806;2022-11-06T11:22:16;10.30;99.90
35668;DHT22;22158;59.280;17.806;2022-11-06T11:25:02;10.30;99.90
35668;DHT22;22158;59.280;17.806;2022-11-06T11:27:35;10.30;99.90
35668;DHT22;22158;59.280;17.806;2022-11-06T11:30:04;10.30;99.90
35668;DHT22;22158;59.280;17.806;2022-11-06T11:32:29;10.30;99.90
35668;DHT22;22158;59.280;17.806;2022-11-06T11:34:56;10.30;99.90
35668;DHT22;22158;59.280;17.806;2022-11-06T11:37:30;10.20;99.90
35668;DHT22;22158;59.280;17.806;2022-11-06T11:40:20;10.20;99.90
35668;DHT22;22158;59.280;17.806;2022-11-06T11:42:49;10.10;99.90
35668;DHT22;22158;59.280;17.806;2022-11-06T11:47:47;10.10;99.90
35668;DHT22;22158;59.280;17.806;2022-11-06T11:52:44;9.90;99.90
35668;DHT22;22158;59.280;17.806;2022-11-06T11:55:20;9.90;99.90
35668;DHT22;22158;59.280;17.806;2022-11-06T11:57:48;9.80;99.90
35668;DHT22;22158;59.280;17.806;2022-11-06T12:00:17;9.80;99.90
35668;DHT22;22158;59.280;17.806;2022-11-06T12:02:50;9.90;99.90
35668;DHT22;22158;59.280;17.806;2022-11-06T12:05:27;9.80;99.90
35668;DHT22;22158;59.280;17.806;2022-11-06T12:07:55;9.90;99.90
35668;DHT22;22158;59.280;17.806;2022-11-06T12:10:37;9.90;99.90
35668;DHT22;22158;59.280;17.806;2022-11-06T12:13:20;9.80;99.90
35668;DHT22;22158;59.280;17.806;2022-11-06T12:16:01;9.70;99.90
35668;DHT22;22158;59.280;17.806;2022-11-06T12:18:37;9.60;99.90
35668;DHT22;22158;59.280;17.806;2022-11-06T12:21:06;9.50;99.90
35668;DHT22;22158;59.280;17.806;2022-11-06T12:23:56;9.50;99.90
35668;DHT22;22158;59.280;17.806;2022-11-06T12:29:33;9.50;99.90
35668;DHT22;22158;59.280;17.806;2022-11-06T12:32:07;9.50;99.90
35668;DHT22;22158;59.280;17.806;2022-11-06T12:34:42;9.50;99.90
35668;DHT22;22158;59.280;17.806;2022-11-06T12:37:19;9.50;99.90
35668;DHT22;22158;59.280;17.806;2022-11-06T12:40:16;9.50;99.90
35668;DHT22;22158;59.280;17.806;2022-11-06T12:45:25;9.40;99.90
35668;DHT22;22158;59.280;17.806;2022-11-06T12:48:02;9.50;99.90
35668;DHT22;22158;59.280;17.806;2022-11-06T12:53:21;9.40;99.90
35668;DHT22;22158;59.280;17.806;2022-11-06T12:55:54;9.40;99.90
35668;DHT22;22158;59.280;17.806;2022-11-06T12:58:43;9.30;99.90
35668;DHT22;22158;59.280;17.806;2022-11-06T13:04:28;9.30;99.90
35668;DHT22;22158;59.280;17.806;2022-11-06T13:09:43;9.30;99.90
35668;DHT22;22158;59.280;17.806;2022-11-06T13:17:40;9.20;99.90
35668;DHT22;22158;59.280;17.806;2022-11-06T13:22:59;9.10;99.90
35668;DHT22;22158;59.280;17.806;2022-11-06T13:26:03;9.20;99.90
35668;DHT22;22158;59.280;17.806;2022-11-06T13:28:33;9.10;99.90
35668;DHT22;22158;59.280;17.806;2022-11-06T13:31:05;9.10;99.90
35668;DHT22;22158;59.280;17.806;2022-11-06T13:33:46;9.10;99.90
35668;DHT22;22158;59.280;17.806;2022-11-06T13:36:13;9.20;99.90
35668;DHT22;22158;59.280;17.806;2022-11-06T13:38:47;9.10;99.90
35668;DHT22;22158;59.280;17.806;2022-11-06T13:43:49;9.20;99.90
35668;DHT22;22158;59.280;17.806;2022-11-06T13:46:28;9.30;99.90
35668;DHT22;22158;59.280;17.806;2022-11-06T13:54:08;9.20;99.90
35668;DHT22;22158;59.280;17.806;2022-11-06T14:06:54;9.40;99.90
35668;DHT22;22158;59.280;17.806;2022-11-06T14:09:23;9.40;99.90
35668;DHT22;22158;59.280;17.806;2022-11-06T14:11:53;9.40;99.90
35668;DHT22;22158;59.280;17.806;2022-11-06T14:16:47;9.40;99.90
35668;DHT22;22158;59.280;17.806;2022-11-06T14:19:30;9.50;99.90
35668;DHT22;22158;59.280;17.806;2022-11-06T14:24:42;9.50;99.90
35668;DHT22;22158;59.280;17.806;2022-11-06T14:30:02;9.50;99.90
35668;DHT22;22158;59.280;17.806;2022-11-06T14:34:55;9.50;99.90
35668;DHT22;22158;59.280;17.806;2022-11-06T14:42:33;9.60;99.90
35668;DHT22;22158;59.280;17.806;2022-11-06T14:50:31;9.70;99.90
35668;DHT22;22158;59.280;17.806;2022-11-06T14:53:01;9.70;99.90
35668;DHT22;22158;59.280;17.806;2022-11-06T14:55:31;9.70;99.90
35668;DHT22;22158;59.280;17.806;2022-11-06T14:58:19;9.70;99.90
35668;DHT22;22158;59.280;17.806;2022-11-06T15:00:53;9.70;99.90
35668;DHT22;22158;59.280;17.806;2022-11-06T15:16:41;9.80;99.90
35668;DHT22;22158;59.280;17.806;2022-11-06T15:22:15;9.80;99.90
35668;DHT22;22158;59.280;17.806;2022-11-06T15:25:01;9.80;99.90
35668;DHT22;22158;59.280;17.806;2022-11-06T15:27:43;9.80;99.90
35668;DHT22;22158;59.280;17.806;2022-11-06T15:30:14;9.90;99.90
35668;DHT22;22158;59.280;17.806;2022-11-06T15:32:43;9.90;99.90
35668;DHT22;22158;59.280;17.806;2022-11-06T15:35:12;9.90;99.90
35668;DHT22;22158;59.280;17.806;2022-11-06T15:38:00;9.90;99.90
35668;DHT22;22158;59.280;17.806;2022-11-06T15:40:34;9.90;99.90
35668;DHT22;22158;59.280;17.806;2022-11-06T15:43:07;9.90;99.90
35668;DHT22;22158;59.280;17.806;2022-11-06T15:45:33;9.90;99.90
35668;DHT22;22158;59.280;17.806;2022-11-06T15:48:03;9.90;99.90
35668;DHT22;22158;59.280;17.806;2022-11-06T15:50:35;9.90;99.90
35668;DHT22;22158;59.280;17.806;2022-11-06T15:55:47;9.90;99.90
35668;DHT22;22158;59.280;17.806;2022-11-06T16:00:44;10.00;99.90
35668;DHT22;22158;59.280;17.806;2022-11-06T16:03:18;10.00;99.90
35668;DHT22;22158;59.280;17.806;2022-11-06T16:05:44;10.00;99.90
35668;DHT22;22158;59.280;17.806;2022-11-06T16:08:16;10.00;99.90
35668;DHT22;22158;59.280;17.806;2022-11-06T16:10:43;10.00;99.90
35668;DHT22;22158;59.280;17.806;2022-11-06T16:13:14;9.90;99.90
35668;DHT22;22158;59.280;17.806;2022-11-06T16:20:54;9.90;99.90
35668;DHT22;22158;59.280;17.806;2022-11-06T16:23:24;9.90;99.90
35668;DHT22;22158;59.280;17.806;2022-11-06T16:28:48;9.80;99.90
35668;DHT22;22158;59.280;17.806;2022-11-06T16:31:22;9.80;99.90
35668;DHT22;22158;59.280;17.806;2022-11-06T16:33:58;9.80;99.90
35668;DHT22;22158;59.280;17.806;2022-11-06T16:36:26;9.80;99.90
35668;DHT22;22158;59.280;17.806;2022-11-06T16:38:52;9.80;99.90
35668;DHT22;22158;59.280;17.806;2022-11-06T16:41:20;9.80;99.90
35668;DHT22;22158;59.280;17.806;2022-11-06T16:44:20;9.80;99.90
35668;DHT22;22158;59.280;17.806;2022-11-06T16:51:57;9.80;99.90
35668;DHT22;22158;59.280;17.806;2022-11-06T16:54:23;9.90;99.90
35668;DHT22;22158;59.280;17.806;2022-11-06T16:56:53;9.80;99.90
35668;DHT22;22158;59.280;17.806;2022-11-06T16:59:24;9.70;99.90
35668;DHT22;22158;59.280;17.806;2022-11-06T17:01:50;9.70;99.90
35668;DHT22;22158;59.280;17.806;2022-11-06T17:04:21;9.70;99.90
35668;DHT22;22158;59.280;17.806;2022-11-06T17:06:49;9.70;99.90
35668;DHT22;22158;59.280;17.806;2022-11-06T17:11:51;9.70;99.90
35668;DHT22;22158;59.280;17.806;2022-11-06T17:14:18;9.70;99.90
35668;DHT22;22158;59.280;17.806;2022-11-06T17:16:47;9.60;99.90
35668;DHT22;22158;59.280;17.806;2022-11-06T17:19:15;9.60;99.90
35668;DHT22;22158;59.280;17.806;2022-11-06T17:21:40;9.50;99.90
35668;DHT22;22158;59.280;17.806;2022-11-06T17:24:06;9.60;99.90
35668;DHT22;22158;59.280;17.806;2022-11-06T17:26:32;9.50;99.90
35668;DHT22;22158;59.280;17.806;2022-11-06T17:28:58;9.50;99.90
35668;DHT22;22158;59.280;17.806;2022-11-06T17:31:25;9.40;99.90
35668;DHT22;22158;59.280;17.806;2022-11-06T17:33:51;9.40;99.90
35668;DHT22;22158;59.280;17.806;2022-11-06T17:36:20;9.30;99.90
35668;DHT22;22158;59.280;17.806;2022-11-06T17:38:46;9.40;99.90
35668;DHT22;22158;59.280;17.806;2022-11-06T17:41:13;9.40;99.90
35668;DHT22;22158;59.280;17.806;2022-11-06T17:43:57;9.40;99.90
35668;DHT22;22158;59.280;17.806;2022-11-06T17:46:28;9.30;99.90
35668;DHT22;22158;59.280;17.806;2022-11-06T17:48:54;9.30;99.90
35668;DHT22;22158;59.280;17.806;2022-11-06T17:51:20;9.20;99.90
35668;DHT22;22158;59.280;17.806;2022-11-06T17:54:05;9.30;99.90
35668;DHT22;22158;59.280;17.806;2022-11-06T17:56:31;9.20;99.90
35668;DHT22;22158;59.280;17.806;2022-11-06T17:58:57;9.20;99.90
35668;DHT22;22158;59.280;17.806;2022-11-06T18:01:22;9.10;99.90
35668;DHT22;22158;59.280;17.806;2022-11-06T18:03:48;9.10;99.90
35668;DHT22;22158;59.280;17.806;2022-11-06T18:06:15;9.10;99.90
35668;DHT22;22158;59.280;17.806;2022-11-06T18:08:41;9.10;99.90
35668;DHT22;22158;59.280;17.806;2022-11-06T18:11:07;9.00;99.90
35668;DHT22;22158;59.280;17.806;2022-11-06T18:13:33;9.10;99.90
35668;DHT22;22158;59.280;17.806;2022-11-06T18:16:00;9.10;99.90
35668;DHT22;22158;59.280;17.806;2022-11-06T18:18:26;9.00;99.90
35668;DHT22;22158;59.280;17.806;2022-11-06T18:20:52;9.00;99.90
35668;DHT22;22158;59.280;17.806;2022-11-06T18:23:17;9.00;99.90
35668;DHT22;22158;59.280;17.806;2022-11-06T18:25:55;9.00;99.90
35668;DHT22;22158;59.280;17.806;2022-11-06T18:28:22;8.90;99.90
35668;DHT22;22158;59.280;17.806;2022-11-06T18:30:48;8.90;99.90
35668;DHT22;22158;59.280;17.806;2022-11-06T18:33:14;9.00;99.90
35668;DHT22;22158;59.280;17.806;2022-11-06T18:35:40;8.90;99.90